Time;durP1;ratioP1;P1;durP2;ratioP2;P2;SDS_P1;SDS_P2;PMS_P1;PMS_P2;Temp;Humidity;BMP_temperature;BMP_pressure;BME280_temperature;BME280_humidity;BME280_pressure;Samples;Min_cycle;Max_cycle;Signal;HPM_P1;HPM_P2
2022/04/02 00:01:15;;;;;;;3.28;2.13;;;4.90;99.90;;;;;;5011466;28;20038;-65
2022/04/02 00:03:42;;;;;;;7.43;2.35;;;4.80;99.90;;;;;;5026762;28;20527;-65
2022/04/02 00:06:08;;;;;;;4.18;2.05;;;4.80;99.90;;;;;;5022731;28;20117;-65
2022/04/02 00:08:34;;;;;;;4.60;2.60;;;4.80;99.90;;;;;;5015913;28;20124;-65
2022/04/02 00:11:00;;;;;;;8.55;2.55;;;4.80;99.90;;;;;;5024389;28;20042;-65
2022/04/02 00:13:26;;;;;;;3.45;2.28;;;4.80;99.90;;;;;;5009908;28;20050;-65
2022/04/02 00:15:52;;;;;;;6.57;2.38;;;4.80;99.90;;;;;;5028463;28;20037;-65
2022/04/02 00:18:17;;;;;;;6.40;1.95;;;4.80;99.90;;;;;;5010693;28;20041;-65
2022/04/02 00:20:43;;;;;;;6.43;2.55;;;4.80;99.90;;;;;;5012765;28;20076;-65
2022/04/02 00:25:53;;;;;;;4.63;2.00;;;4.80;99.90;;;;;;5014624;28;20689;-65
2022/04/02 00:28:18;;;;;;;24.02;4.07;;;4.80;99.90;;;;;;5008824;28;20050;-65
2022/04/02 00:30:44;;;;;;;7.10;3.35;;;4.90;99.90;;;;;;5014055;28;20042;-64
2022/04/02 00:33:10;;;;;;;3.33;2.03;;;4.80;99.90;;;;;;5016313;28;20045;-65
2022/04/02 00:35:36;;;;;;;8.63;2.85;;;4.80;99.90;;;;;;5017505;28;20041;-65
2022/04/02 00:38:02;;;;;;;11.52;2.50;;;4.70;99.90;;;;;;5016640;28;20049;-64
2022/04/02 00:40:28;;;;;;;7.10;2.28;;;4.70;99.90;;;;;;5025466;28;20446;-65
2022/04/02 00:42:54;;;;;;;6.35;2.28;;;4.80;99.90;;;;;;5021376;28;20509;-65
2022/04/02 00:45:19;;;;;;;7.75;1.98;;;4.80;99.90;;;;;;5014113;28;20076;-65
2022/04/02 00:47:45;;;;;;;3.85;2.50;;;4.80;99.90;;;;;;5027235;28;20049;-65
2022/04/02 00:50:11;;;;;;;9.27;2.00;;;4.70;99.90;;;;;;5022690;28;20095;-64
2022/04/02 00:52:38;;;;;;;4.53;1.55;;;4.70;99.90;;;;;;5013576;28;20065;-64
2022/04/02 00:55:04;;;;;;;4.47;2.10;;;4.70;99.90;;;;;;5017002;28;20513;-65
2022/04/02 00:57:30;;;;;;;9.88;2.58;;;4.70;99.90;;;;;;5012907;28;20084;-65
2022/04/02 00:59:56;;;;;;;5.75;1.98;;;4.60;99.90;;;;;;5010032;28;20069;-65
2022/04/02 01:02:21;;;;;;;6.38;2.17;;;4.60;99.90;;;;;;5015104;28;20039;-65
2022/04/02 01:04:47;;;;;;;6.90;1.73;;;4.60;99.90;;;;;;5025174;28;20083;-65
2022/04/02 01:07:15;;;;;;;3.30;1.90;;;4.60;99.90;;;;;;5017469;28;20121;-64
2022/04/02 01:09:41;;;;;;;5.18;2.05;;;4.60;99.90;;;;;;5025528;28;20435;-64
2022/04/02 01:12:07;;;;;;;6.90;2.00;;;4.50;99.90;;;;;;5027994;28;20128;-65
2022/04/02 01:14:32;;;;;;;5.65;1.83;;;4.50;99.90;;;;;;5024842;28;20071;-65
2022/04/02 01:16:58;;;;;;;3.92;1.45;;;4.40;99.90;;;;;;5023580;28;20576;-64
2022/04/02 01:19:24;;;;;;;4.82;2.10;;;4.40;99.90;;;;;;5030293;28;20406;-64
2022/04/02 01:21:49;;;;;;;3.60;1.92;;;4.40;99.90;;;;;;5015804;28;20070;-65
2022/04/02 01:24:15;;;;;;;3.83;1.58;;;4.40;99.90;;;;;;5029503;28;20045;-65
2022/04/02 01:26:41;;;;;;;4.65;2.03;;;4.30;99.90;;;;;;5031061;28;20045;-64
2022/04/02 01:29:07;;;;;;;4.88;2.38;;;4.30;99.90;;;;;;5025241;28;20041;-65
2022/04/02 01:31:33;;;;;;;5.30;1.73;;;4.20;99.90;;;;;;5027992;28;20812;-65
2022/04/02 01:34:00;;;;;;;5.28;1.52;;;4.30;99.90;;;;;;5019611;28;20054;-64
2022/04/02 01:36:26;;;;;;;4.28;1.52;;;4.20;99.90;;;;;;5022578;28;20041;-65
2022/04/02 01:38:51;;;;;;;4.10;1.13;;;4.20;99.90;;;;;;5027427;28;20386;-65
2022/04/02 01:41:18;;;;;;;8.68;1.70;;;4.20;99.90;;;;;;5026327;28;20049;-64
2022/04/02 01:43:44;;;;;;;2.35;1.40;;;4.20;99.90;;;;;;5029029;28;20052;-65
2022/04/02 01:46:10;;;;;;;8.07;1.73;;;4.10;99.90;;;;;;5029173;28;20045;-65
2022/04/02 01:48:36;;;;;;;3.28;1.40;;;4.10;99.90;;;;;;5029488;28;20469;-65
2022/04/02 01:51:02;;;;;;;4.85;1.63;;;4.10;99.90;;;;;;5013628;28;20069;-65
2022/04/02 01:53:28;;;;;;;3.05;1.48;;;4.00;99.90;;;;;;5023946;28;20055;-65
2022/04/02 01:55:54;;;;;;;4.60;1.27;;;4.00;99.90;;;;;;5014008;28;20077;-65
2022/04/02 01:58:20;;;;;;;3.63;1.40;;;3.90;99.90;;;;;;5022110;28;20076;-65
2022/04/02 02:00:49;;;;;;;5.15;1.10;;;3.90;99.90;;;;;;5029774;28;20592;-65
2022/04/02 02:03:14;;;;;;;6.70;1.80;;;3.90;99.90;;;;;;5025549;28;20038;-65
2022/04/02 02:05:40;;;;;;;5.18;1.50;;;3.80;99.90;;;;;;5018784;28;20037;-65
2022/04/02 02:08:06;;;;;;;2.90;1.52;;;3.80;99.90;;;;;;5028445;28;20037;-65
2022/04/02 02:10:32;;;;;;;5.25;1.27;;;3.80;99.90;;;;;;5026758;28;20053;-65
2022/04/02 02:12:59;;;;;;;4.68;1.77;;;3.80;99.90;;;;;;5015157;28;20050;-65
2022/04/02 02:15:26;;;;;;;4.40;1.50;;;3.80;99.90;;;;;;5025878;28;20116;-65
2022/04/02 02:17:52;;;;;;;2.47;1.35;;;3.70;99.90;;;;;;5016872;28;20060;-65
2022/04/02 02:20:18;;;;;;;6.55;2.63;;;3.70;99.90;;;;;;5029287;28;20042;-65
2022/04/02 02:22:45;;;;;;;3.05;1.63;;;3.60;99.90;;;;;;5023336;28;20058;-65
2022/04/02 02:25:13;;;;;;;2.80;1.85;;;3.60;99.90;;;;;;5018557;28;20596;-65
2022/04/02 02:27:40;;;;;;;3.70;1.27;;;3.60;99.90;;;;;;5028558;28;20045;-65
2022/04/02 02:30:09;;;;;;;4.90;1.38;;;3.50;99.90;;;;;;5029415;28;20046;-65
2022/04/02 02:32:36;;;;;;;4.30;1.80;;;3.50;99.90;;;;;;5020459;28;20104;-65
2022/04/02 02:38:03;;;;;;;5.85;1.50;;;3.50;99.90;;;;;;5020276;28;21136;-65
2022/04/02 02:40:29;;;;;;;5.28;1.92;;;3.50;99.90;;;;;;5027804;28;20049;-64
2022/04/02 02:42:54;;;;;;;10.38;2.50;;;3.50;99.90;;;;;;5029835;28;20366;-65
2022/04/02 02:45:20;;;;;;;6.28;2.90;;;3.50;99.90;;;;;;5028797;28;20132;-64
2022/04/02 02:47:46;;;;;;;2.65;1.40;;;3.50;99.90;;;;;;5016406;28;20038;-65
2022/04/02 02:50:11;;;;;;;7.68;1.95;;;3.50;99.90;;;;;;5016759;28;20053;-64
2022/04/02 02:52:37;;;;;;;4.63;1.27;;;3.50;99.90;;;;;;5027446;28;20045;-65
2022/04/02 02:55:02;;;;;;;5.38;1.48;;;3.50;99.90;;;;;;5019744;28;20084;-65
2022/04/02 02:57:28;;;;;;;7.28;2.47;;;3.50;99.90;;;;;;5026335;28;20061;-64
2022/04/02 02:59:54;;;;;;;8.00;2.45;;;3.40;99.90;;;;;;5024979;28;20400;-65
2022/04/02 03:02:21;;;;;;;4.25;2.03;;;3.40;99.90;;;;;;5023003;28;20045;-65
2022/04/02 03:04:46;;;;;;;4.80;1.70;;;3.40;99.90;;;;;;5029560;28;20053;-64
2022/04/02 03:07:12;;;;;;;11.23;3.22;;;3.40;99.90;;;;;;5019509;28;20046;-65
2022/04/02 03:09:37;;;;;;;5.05;1.88;;;3.40;99.90;;;;;;5027024;28;20473;-65
2022/04/02 03:12:03;;;;;;;5.70;1.48;;;3.50;99.90;;;;;;5012476;28;20118;-64
2022/04/02 03:14:28;;;;;;;6.22;2.55;;;3.40;99.90;;;;;;5023789;28;20056;-64
2022/04/02 03:16:54;;;;;;;5.85;1.80;;;3.40;99.90;;;;;;5028794;28;20501;-65
2022/04/02 03:19:19;;;;;;;4.63;1.55;;;3.40;99.90;;;;;;5024647;28;20080;-65
2022/04/02 03:21:45;;;;;;;4.97;2.03;;;3.40;99.90;;;;;;5024550;28;20102;-64
2022/04/02 03:24:11;;;;;;;5.72;1.92;;;3.30;99.90;;;;;;5028941;28;20053;-64
2022/04/02 03:26:36;;;;;;;4.20;1.40;;;3.30;99.90;;;;;;5027219;28;20501;-64
2022/04/02 03:29:02;;;;;;;6.20;1.60;;;3.30;99.90;;;;;;5025942;28;20121;-65
2022/04/02 03:31:28;;;;;;;8.93;1.95;;;3.30;99.90;;;;;;5024511;28;20448;-64
2022/04/02 03:33:53;;;;;;;2.70;1.70;;;3.20;99.90;;;;;;5025350;28;20053;-64
2022/04/02 03:36:19;;;;;;;5.13;1.45;;;3.20;99.90;;;;;;5018250;28;20521;-65
2022/04/02 03:38:45;;;;;;;4.75;1.50;;;3.20;99.90;;;;;;5026357;28;20058;-65
2022/04/02 03:41:12;;;;;;;5.53;2.35;;;3.20;99.90;;;;;;5022192;28;20038;-65
2022/04/02 03:43:38;;;;;;;8.43;2.35;;;3.20;99.90;;;;;;5022342;28;20033;-65
2022/04/02 03:48:48;;;;;;;6.82;2.30;;;3.10;99.90;;;;;;5028720;28;20045;-65
2022/04/02 03:51:13;;;;;;;7.47;2.22;;;3.10;99.90;;;;;;5015353;28;20045;-65
2022/04/02 03:53:39;;;;;;;6.25;2.28;;;3.10;99.90;;;;;;5026401;28;20061;-65
2022/04/02 03:56:05;;;;;;;5.28;1.45;;;3.10;99.90;;;;;;5026199;28;20045;-65
2022/04/02 03:58:31;;;;;;;5.78;2.08;;;3.10;99.90;;;;;;5017762;28;20060;-64
2022/04/02 04:00:57;;;;;;;6.40;1.77;;;3.10;99.90;;;;;;5027114;28;20033;-64
2022/04/02 04:03:23;;;;;;;4.35;1.83;;;3.10;99.90;;;;;;5017320;28;20883;-64
2022/04/02 04:05:48;;;;;;;4.03;2.10;;;3.10;99.90;;;;;;5019996;28;20175;-65
2022/04/02 04:08:14;;;;;;;4.10;1.83;;;3.10;99.90;;;;;;5014606;28;20042;-65
2022/04/02 04:10:40;;;;;;;11.98;2.05;;;3.10;99.90;;;;;;5016483;28;20091;-64
2022/04/02 04:13:05;;;;;;;4.32;1.60;;;3.10;99.90;;;;;;5022015;28;20077;-65
2022/04/02 04:15:31;;;;;;;4.93;1.90;;;3.20;99.90;;;;;;5015231;28;20107;-65
2022/04/02 04:17:57;;;;;;;8.23;1.98;;;3.20;99.90;;;;;;5025042;28;20044;-64
2022/04/02 04:20:23;;;;;;;2.85;1.60;;;3.20;99.90;;;;;;5027473;28;20038;-65
2022/04/02 04:22:49;;;;;;;7.97;1.73;;;3.20;99.90;;;;;;5021974;28;20046;-64
2022/04/02 04:25:14;;;;;;;4.57;1.60;;;3.30;99.90;;;;;;5026680;28;20034;-65
2022/04/02 04:27:40;;;;;;;5.20;1.92;;;3.30;99.90;;;;;;5027737;28;20519;-64
2022/04/02 04:30:06;;;;;;;5.07;1.55;;;3.20;99.90;;;;;;5022634;28;20046;-64
2022/04/02 04:32:33;;;;;;;5.93;1.27;;;3.10;99.90;;;;;;5012154;28;20625;-64
2022/04/02 04:34:58;;;;;;;2.75;1.10;;;3.20;99.90;;;;;;5014256;28;20135;-64
2022/04/02 04:37:24;;;;;;;3.63;1.73;;;3.20;99.90;;;;;;5027086;28;20087;-65
2022/04/02 04:39:50;;;;;;;5.15;1.35;;;3.20;99.90;;;;;;5022496;28;20124;-64
2022/04/02 04:42:16;;;;;;;1.17;0.93;;;3.10;99.90;;;;;;5016890;28;20053;-65
2022/04/02 04:44:42;;;;;;;4.97;2.55;;;3.10;99.90;;;;;;5028041;28;20041;-64
2022/04/02 04:47:07;;;;;;;13.18;2.15;;;3.10;99.90;;;;;;5026686;28;20049;-65
2022/04/02 04:49:33;;;;;;;5.00;1.70;;;3.10;99.90;;;;;;5022207;28;20512;-65
2022/04/02 04:51:59;;;;;;;8.52;2.08;;;3.10;99.90;;;;;;5022152;28;20053;-64
2022/04/02 04:54:24;;;;;;;6.75;1.73;;;3.10;99.90;;;;;;5030433;28;20603;-65
2022/04/02 04:56:50;;;;;;;5.47;1.20;;;3.10;99.90;;;;;;5031074;28;20048;-65
2022/04/02 04:59:15;;;;;;;4.65;1.63;;;3.00;99.90;;;;;;5027424;28;20081;-65
2022/04/02 05:01:42;;;;;;;3.72;1.25;;;3.10;99.90;;;;;;5021375;28;20878;-64
2022/04/02 05:04:08;;;;;;;6.25;1.17;;;3.10;99.90;;;;;;5025206;28;20076;-65
2022/04/02 05:06:35;;;;;;;4.70;1.65;;;3.10;99.90;;;;;;5021463;28;20120;-65
2022/04/02 05:09:01;;;;;;;13.52;2.30;;;3.10;99.90;;;;;;5031522;28;20087;-65
2022/04/02 05:11:27;;;;;;;10.70;1.70;;;3.00;99.90;;;;;;5030167;28;20042;-65
2022/04/02 05:13:52;;;;;;;6.03;1.55;;;3.10;99.90;;;;;;5026371;28;20046;-65
2022/04/02 05:16:18;;;;;;;3.63;1.55;;;3.10;99.90;;;;;;5017803;28;20509;-65
2022/04/02 05:18:44;;;;;;;7.32;1.88;;;3.10;99.90;;;;;;5030708;28;20045;-64
2022/04/02 05:21:10;;;;;;;3.22;1.75;;;3.10;99.90;;;;;;5029825;28;20045;-64
2022/04/02 05:23:36;;;;;;;7.97;1.67;;;3.00;99.90;;;;;;5025133;28;20044;-65
2022/04/02 05:26:02;;;;;;;5.95;1.70;;;3.10;99.90;;;;;;5029874;28;20042;-65
2022/04/02 05:28:28;;;;;;;6.85;2.13;;;3.10;99.90;;;;;;5029769;28;20049;-65
2022/04/02 05:30:54;;;;;;;24.90;17.70;;;3.00;99.90;;;;;;5023337;28;20038;-65
2022/04/02 05:33:21;;;;;;;26.65;18.60;;;3.00;99.90;;;;;;5021376;28;20055;-65
2022/04/02 05:35:47;;;;;;;35.63;24.23;;;3.00;99.90;;;;;;5029725;28;20458;-64
2022/04/02 05:38:13;;;;;;;33.45;24.30;;;3.00;99.90;;;;;;5029985;28;20049;-65
2022/04/02 05:40:38;;;;;;;26.10;15.30;;;3.00;99.90;;;;;;5024042;28;20487;-64
2022/04/02 05:43:05;;;;;;;11.40;6.70;;;3.10;99.90;;;;;;5024685;28;20037;-65
2022/04/02 05:45:31;;;;;;;7.75;3.83;;;3.20;99.90;;;;;;5029556;28;20080;-64
2022/04/02 05:47:56;;;;;;;11.02;3.42;;;3.10;99.90;;;;;;5013631;28;20077;-64
2022/04/02 05:50:24;;;;;;;6.97;2.65;;;3.10;99.90;;;;;;5018906;28;20391;-65
2022/04/02 05:52:50;;;;;;;5.68;2.00;;;3.10;99.90;;;;;;5028948;28;20131;-65
2022/04/02 05:55:17;;;;;;;8.88;2.85;;;3.20;99.90;;;;;;5013044;28;20085;-64
2022/04/02 05:57:43;;;;;;;2.65;2.28;;;3.20;99.90;;;;;;5026309;28;20042;-64
2022/04/02 06:00:10;;;;;;;7.80;2.33;;;3.30;99.90;;;;;;5020754;28;20041;-64
2022/04/02 06:02:37;;;;;;;8.32;2.05;;;3.30;99.90;;;;;;5020998;28;20054;-64
2022/04/02 06:05:04;;;;;;;5.53;1.48;;;3.30;99.90;;;;;;5028276;28;20111;-65
2022/04/02 06:07:30;;;;;;;10.40;2.30;;;3.40;99.90;;;;;;5017116;28;20493;-65
2022/04/02 06:09:56;;;;;;;3.15;2.03;;;3.30;99.90;;;;;;5018633;28;20127;-64
2022/04/02 06:12:22;;;;;;;4.47;1.90;;;3.30;99.90;;;;;;5027716;28;20041;-65
2022/04/02 06:14:48;;;;;;;5.40;1.85;;;3.40;99.90;;;;;;5018247;28;20049;-65
2022/04/02 06:17:14;;;;;;;8.73;2.35;;;3.50;99.90;;;;;;5021607;28;20041;-64
2022/04/02 06:19:39;;;;;;;8.55;2.63;;;3.60;99.90;;;;;;5020828;28;20053;-65
2022/04/02 06:22:07;;;;;;;4.13;1.83;;;3.60;99.90;;;;;;5017625;28;20055;-65
2022/04/02 06:24:36;;;;;;;8.60;1.83;;;3.60;99.90;;;;;;5027478;28;20079;-64
2022/04/02 06:27:03;;;;;;;4.95;1.58;;;3.70;99.90;;;;;;5019092;28;20038;-64
2022/04/02 06:29:28;;;;;;;10.05;2.47;;;3.60;99.90;;;;;;5026181;28;20053;-65
2022/04/02 06:31:54;;;;;;;3.22;1.65;;;3.60;99.90;;;;;;5021388;28;20768;-65
2022/04/02 06:34:20;;;;;;;8.48;2.65;;;3.60;99.90;;;;;;5023962;28;20072;-64
2022/04/02 06:36:45;;;;;;;7.15;2.75;;;3.80;99.90;;;;;;5028143;28;20060;-64
2022/04/02 06:39:13;;;;;;;11.23;3.20;;;3.80;99.90;;;;;;5028632;28;20046;-64
2022/04/02 06:41:40;;;;;;;10.07;6.03;;;3.70;99.90;;;;;;5022379;28;20056;-65
2022/04/02 06:44:09;;;;;;;3.90;2.05;;;3.70;99.90;;;;;;5021081;28;20052;-65
2022/04/02 06:46:37;;;;;;;8.20;3.90;;;3.70;99.90;;;;;;5020342;28;21700;-65
2022/04/02 06:49:03;;;;;;;15.40;5.20;;;3.70;99.90;;;;;;5018710;28;20055;-65
2022/04/02 06:51:29;;;;;;;13.48;6.70;;;3.80;99.90;;;;;;5028092;28;20138;-65
2022/04/02 06:53:54;;;;;;;21.58;9.55;;;3.90;99.90;;;;;;5016084;28;20046;-65
2022/04/02 06:56:20;;;;;;;17.92;7.38;;;3.90;99.90;;;;;;5017208;28;20041;-65
2022/04/02 06:58:45;;;;;;;5.82;3.72;;;4.00;99.90;;;;;;5029146;28;20727;-65
2022/04/02 07:01:11;;;;;;;15.73;5.82;;;4.00;99.90;;;;;;5027075;28;20045;-65
2022/04/02 07:03:37;;;;;;;17.58;8.18;;;4.10;99.90;;;;;;5019990;28;20053;-65
2022/04/02 07:06:03;;;;;;;10.40;3.88;;;4.20;99.90;;;;;;5013364;28;20041;-65
2022/04/02 07:08:29;;;;;;;14.00;7.35;;;4.10;99.90;;;;;;5022046;28;20537;-64
2022/04/02 07:10:54;;;;;;;11.82;4.70;;;4.20;99.90;;;;;;5022860;28;20049;-65
2022/04/02 07:13:20;;;;;;;15.80;6.68;;;4.30;99.90;;;;;;5022912;28;20108;-64
2022/04/02 07:15:46;;;;;;;13.55;6.32;;;4.30;99.90;;;;;;5026786;28;20125;-65
2022/04/02 07:18:11;;;;;;;19.63;9.30;;;4.30;99.90;;;;;;5016419;28;20079;-64
2022/04/02 07:20:39;;;;;;;21.30;8.15;;;4.30;99.90;;;;;;5015019;28;20033;-65
2022/04/02 07:23:09;;;;;;;11.57;5.50;;;4.50;99.90;;;;;;5028063;28;20374;-64
2022/04/02 07:25:39;;;;;;;9.00;4.82;;;4.50;99.90;;;;;;5020000;28;20750;-64
2022/04/02 07:28:07;;;;;;;21.88;9.10;;;4.50;99.90;;;;;;5025682;28;20072;-64
2022/04/02 07:30:34;;;;;;;12.60;7.13;;;4.40;99.90;;;;;;5027283;28;20033;-64
2022/04/02 07:33:00;;;;;;;13.32;5.70;;;4.50;99.90;;;;;;5022328;28;20156;-65
2022/04/02 07:35:33;;;;;;;16.30;5.75;;;4.50;99.90;;;;;;5023897;28;20120;-65
2022/04/02 07:38:03;;;;;;;11.52;4.10;;;4.50;99.90;;;;;;5028271;28;20489;-64
2022/04/02 07:40:34;;;;;;;6.05;2.42;;;4.60;99.90;;;;;;5023636;28;20076;-64
2022/04/02 07:43:14;;;;;;;3.30;1.60;;;4.80;99.90;;;;;;5024639;28;20060;-65
2022/04/02 07:45:43;;;;;;;7.72;2.25;;;4.90;99.90;;;;;;5013994;28;20148;-64
2022/04/02 07:48:10;;;;;;;5.85;1.73;;;4.90;99.90;;;;;;5019715;28;20503;-65
2022/04/02 07:50:42;;;;;;;12.90;2.10;;;5.00;99.90;;;;;;5008231;28;20474;-65
2022/04/02 07:53:21;;;;;;;4.88;1.63;;;5.20;99.90;;;;;;5008016;28;20054;-65
2022/04/02 07:55:50;;;;;;;5.55;1.63;;;5.20;99.90;;;;;;5008362;28;20046;-64
2022/04/02 07:58:19;;;;;;;3.65;1.40;;;5.20;99.90;;;;;;5008775;28;20116;-65
2022/04/02 08:00:52;;;;;;;6.35;1.55;;;5.30;99.90;;;;;;5008323;28;20049;-65
2022/04/02 08:03:20;;;;;;;5.07;1.83;;;5.40;99.90;;;;;;5023722;28;20421;-64
2022/04/02 08:05:46;;;;;;;3.30;1.38;;;5.50;99.90;;;;;;5012378;28;20046;-65
2022/04/02 08:08:13;;;;;;;5.22;1.52;;;5.60;99.90;;;;;;5008323;28;20050;-64
2022/04/02 08:10:45;;;;;;;7.85;3.20;;;5.60;99.90;;;;;;5006926;28;20057;-65
2022/04/02 08:13:14;;;;;;;11.77;5.22;;;5.80;99.90;;;;;;5024634;28;20540;-65
2022/04/02 08:15:40;;;;;;;9.43;3.58;;;6.00;99.90;;;;;;5028015;28;20042;-65
2022/04/02 08:18:07;;;;;;;10.07;5.75;;;6.60;99.90;;;;;;5026386;28;20481;-65
2022/04/02 08:20:33;;;;;;;4.15;1.83;;;7.00;99.90;;;;;;5015606;28;20117;-64
2022/04/02 08:23:01;;;;;;;4.95;1.98;;;7.60;99.90;;;;;;5009706;28;20556;-65
2022/04/02 08:25:27;;;;;;;4.55;2.03;;;8.50;99.90;;;;;;5014478;28;20042;-64
2022/04/02 08:28:04;;;;;;;5.50;2.47;;;9.10;97.60;;;;;;5030648;28;20136;-65
2022/04/02 08:30:59;;;;;;;5.05;2.25;;;9.70;98.00;;;;;;5018969;28;20100;-65
2022/04/02 08:33:56;;;;;;;5.85;2.13;;;10.20;95.90;;;;;;5031048;28;20059;-65
2022/04/02 08:36:38;;;;;;;7.18;2.75;;;10.80;95.20;;;;;;5031555;28;20048;-65
2022/04/02 08:39:08;;;;;;;7.03;2.65;;;11.00;93.40;;;;;;5014039;28;20509;-65
2022/04/02 08:42:01;;;;;;;2.60;1.05;;;11.20;93.40;;;;;;5024358;28;20038;-65
2022/04/02 08:44:48;;;;;;;2.27;1.17;;;11.80;92.60;;;;;;5016521;28;20703;-65
2022/04/02 08:47:46;;;;;;;5.93;1.58;;;12.20;91.80;;;;;;5012565;28;20073;-65
2022/04/02 08:50:14;;;;;;;3.42;1.70;;;12.00;90.80;;;;;;5012527;28;20080;-65
2022/04/02 08:53:16;;;;;;;4.38;1.10;;;12.20;91.30;;;;;;5010064;28;20667;-65
2022/04/02 08:56:06;;;;;;;5.03;1.83;;;11.50;88.70;;;;;;5012065;28;20494;-65
2022/04/02 08:58:56;;;;;;;7.57;1.98;;;10.60;89.70;;;;;;5009718;28;20133;-65
2022/04/02 09:01:28;;;;;;;8.60;3.35;;;9.80;91.90;;;;;;5010989;28;20206;-65
2022/04/02 09:03:57;;;;;;;6.63;1.95;;;9.00;93.30;;;;;;5012681;28;20088;-65
2022/04/02 09:06:49;;;;;;;5.47;1.58;;;8.60;92.90;;;;;;5021114;28;20073;-65
2022/04/02 09:09:47;;;;;;;5.32;1.50;;;8.00;94.60;;;;;;5031423;28;20117;-65
2022/04/02 09:12:27;;;;;;;2.67;1.38;;;7.70;94.90;;;;;;5022204;28;20065;-65
2022/04/02 09:15:06;;;;;;;3.17;1.27;;;7.40;95.70;;;;;;5010068;28;20045;-65
2022/04/02 09:17:40;;;;;;;2.92;1.48;;;7.20;95.40;;;;;;5011521;28;20077;-65
2022/04/02 09:20:24;;;;;;;4.22;1.75;;;7.20;96.00;;;;;;5024547;28;20080;-65
2022/04/02 09:23:00;;;;;;;6.75;1.83;;;7.00;95.80;;;;;;5022457;28;20050;-64
2022/04/02 09:26:02;;;;;;;2.72;1.50;;;7.70;95.80;;;;;;5017004;28;20038;-65
2022/04/02 09:28:44;;;;;;;2.78;1.35;;;9.40;94.70;;;;;;5021055;28;20610;-65
2022/04/02 09:31:31;;;;;;;4.00;1.27;;;9.00;91.60;;;;;;5010138;28;20065;-65
2022/04/02 09:34:31;;;;;;;3.17;1.13;;;8.90;93.50;;;;;;5010873;28;20053;-64
2022/04/02 09:37:13;;;;;;;4.45;1.50;;;8.40;92.60;;;;;;5021536;28;20096;-65
2022/04/02 09:40:00;;;;;;;2.50;0.68;;;7.90;94.70;;;;;;5028617;28;20056;-65
2022/04/02 09:42:36;;;;;;;3.22;0.82;;;8.30;93.20;;;;;;5010213;28;20092;-65
2022/04/02 09:45:05;;;;;;;2.20;0.88;;;8.10;94.20;;;;;;5010428;28;20790;-65
2022/04/02 09:47:51;;;;;;;1.73;0.80;;;8.00;94.10;;;;;;5010623;28;20041;-64
2022/04/02 09:50:22;;;;;;;6.18;1.20;;;8.10;93.70;;;;;;5010577;28;20058;-65
2022/04/02 09:52:54;;;;;;;3.90;1.00;;;8.40;94.20;;;;;;5010875;28;20562;-64
2022/04/02 09:55:44;;;;;;;1.48;0.90;;;8.60;94.20;;;;;;5024981;28;20139;-65
2022/04/02 09:58:51;;;;;;;2.60;1.00;;;8.30;94.10;;;;;;5030784;28;20175;-65
2022/04/02 10:01:27;;;;;;;5.45;1.33;;;8.10;94.80;;;;;;5067109;28;20102;-65
2022/04/02 10:04:17;;;;;;;2.47;0.95;;;7.80;93.80;;;;;;5030496;28;20084;-65
2022/04/02 10:06:49;;;;;;;3.25;0.90;;;7.70;94.90;;;;;;5032805;28;20133;-65
2022/04/02 10:09:18;;;;;;;3.53;1.10;;;7.60;94.10;;;;;;5029351;28;20501;-65
2022/04/02 10:12:00;;;;;;;3.38;1.17;;;7.90;93.90;;;;;;5023671;28;20052;-65
2022/04/02 10:14:32;;;;;;;2.58;1.20;;;8.80;95.00;;;;;;5029658;28;20184;-64
2022/04/02 10:17:06;;;;;;;7.47;1.35;;;9.60;92.90;;;;;;5029738;28;20481;-64
2022/04/02 10:19:34;;;;;;;4.03;0.85;;;9.60;92.30;;;;;;5023591;28;20049;-65
2022/04/02 10:22:03;;;;;;;8.55;1.52;;;9.70;92.70;;;;;;5024832;28;20497;-64
2022/04/02 10:24:36;;;;;;;6.82;1.40;;;9.90;93.00;;;;;;5020026;28;20050;-65
2022/04/02 10:27:03;;;;;;;5.43;0.98;;;10.10;92.70;;;;;;5020277;28;20053;-65
2022/04/02 10:29:34;;;;;;;4.78;1.25;;;10.20;92.10;;;;;;5019712;28;20049;-65
2022/04/02 10:32:25;;;;;;;6.53;1.25;;;10.20;92.90;;;;;;5011282;28;20089;-64
2022/04/02 10:35:04;;;;;;;3.65;1.13;;;9.90;92.20;;;;;;5021484;28;20484;-64
2022/04/02 10:37:50;;;;;;;2.88;1.02;;;9.50;92.10;;;;;;5011403;28;20553;-64
2022/04/02 10:40:19;;;;;;;4.82;1.00;;;9.50;92.20;;;;;;5017865;28;20052;-64
2022/04/02 10:42:52;;;;;;;1.83;1.05;;;9.10;93.10;;;;;;5023352;28;20081;-64
2022/04/02 10:45:20;;;;;;;3.30;1.02;;;9.50;95.30;;;;;;5009101;28;20085;-64
2022/04/02 10:47:56;;;;;;;2.17;0.80;;;9.50;93.30;;;;;;5010162;28;20517;-64
2022/04/02 10:50:25;;;;;;;3.83;1.95;;;8.90;92.50;;;;;;5008349;28;20049;-65
2022/04/02 10:52:51;;;;;;;4.45;1.75;;;9.00;93.60;;;;;;5008735;28;20115;-64
2022/04/02 10:55:23;;;;;;;5.05;1.17;;;9.50;93.40;;;;;;5020386;28;20498;-64
2022/04/02 10:57:49;;;;;;;7.13;2.17;;;10.00;92.70;;;;;;5029365;28;20074;-64
2022/04/02 11:00:15;;;;;;;7.78;2.63;;;10.40;92.30;;;;;;5009335;28;20042;-64
2022/04/02 11:02:42;;;;;;;6.15;2.05;;;10.60;91.80;;;;;;5013411;28;20046;-64
2022/04/02 11:05:16;;;;;;;6.20;2.67;;;10.50;90.10;;;;;;5009217;28;20057;-64
2022/04/02 11:07:44;;;;;;;6.28;2.58;;;10.00;92.10;;;;;;5011964;28;20049;-64
2022/04/02 11:10:13;;;;;;;5.10;2.03;;;9.60;90.20;;;;;;5009857;28;20124;-64
2022/04/02 11:12:44;;;;;;;11.35;3.20;;;9.60;92.60;;;;;;5007880;28;20423;-64
2022/04/02 11:15:25;;;;;;;2.78;1.25;;;10.20;90.90;;;;;;5017155;28;20042;-64
2022/04/02 11:17:53;;;;;;;8.93;3.45;;;10.60;93.40;;;;;;5009514;28;20057;-64
2022/04/02 11:20:26;;;;;;;11.82;3.45;;;10.20;91.60;;;;;;5008411;28;20049;-65
2022/04/02 11:22:52;;;;;;;;;;;9.80;87.50;;;;;;5020272;28;20561;-65
2022/04/02 11:25:39;;;;;;;11.18;3.22;;;9.90;90.10;;;;;;5028608;28;20016;-64
2022/04/02 11:28:05;;;;;;;10.23;4.60;;;10.40;93.40;;;;;;5028174;28;20558;-64
2022/04/02 11:30:33;;;;;;;4.88;1.90;;;11.00;92.20;;;;;;5012185;28;20042;-64
2022/04/02 11:33:30;;;;;;;6.88;2.22;;;11.20;90.30;;;;;;5017703;28;20037;-64
2022/04/02 11:36:03;;;;;;;7.82;2.08;;;10.90;91.50;;;;;;5020772;28;20053;-64
2022/04/02 11:38:34;;;;;;;8.20;2.65;;;10.40;91.10;;;;;;5028267;28;20045;-64
2022/04/02 11:41:06;;;;;;;7.97;1.85;;;10.50;90.70;;;;;;5026999;28;20061;-64
2022/04/02 11:43:34;;;;;;;10.52;3.30;;;11.10;90.60;;;;;;5013286;28;20081;-64
2022/04/02 11:46:02;;;;;;;7.13;1.75;;;11.60;90.10;;;;;;5008563;28;20049;-64
2022/04/02 11:48:37;;;;;;;8.15;1.88;;;11.50;89.70;;;;;;5006599;28;20057;-64
2022/04/02 11:51:38;;;;;;;7.75;2.03;;;11.80;90.80;;;;;;5007976;28;20054;-64
2022/04/02 11:54:07;;;;;;;15.32;5.30;;;11.20;88.90;;;;;;5045610;28;20060;-64
2022/04/02 11:56:40;;;;;;;12.35;3.38;;;10.70;89.70;;;;;;5014250;28;20112;-64
2022/04/02 11:59:08;;;;;;;18.77;6.05;;;11.00;90.70;;;;;;5012044;28;20123;-64
2022/04/02 12:01:45;;;;;;;3.65;1.00;;;11.50;89.50;;;;;;5007118;28;20463;-64
2022/04/02 12:04:13;;;;;;;9.35;3.53;;;11.30;89.60;;;;;;5015846;28;20044;-64
2022/04/02 12:06:40;;;;;;;17.15;3.40;;;10.90;87.70;;;;;;5010556;28;20045;-64
2022/04/02 12:09:22;;;;;;;8.43;3.55;;;10.30;86.30;;;;;;5015386;28;20049;-64
2022/04/02 12:11:59;;;;;;;8.93;4.03;;;10.80;87.70;;;;;;5028560;28;20045;-64
2022/04/02 12:14:30;;;;;;;9.00;3.45;;;11.20;91.00;;;;;;5023598;28;20125;-64
2022/04/02 12:17:13;;;;;;;4.72;2.08;;;10.90;88.50;;;;;;5023724;28;20046;-64
2022/04/02 12:19:49;;;;;;;7.43;1.77;;;10.50;89.50;;;;;;5019234;28;20045;-64
2022/04/02 12:22:26;;;;;;;2.83;1.33;;;11.50;89.60;;;;;;5008410;28;20046;-64
2022/04/02 12:24:53;;;;;;;2.78;1.08;;;11.30;88.40;;;;;;5008529;28;20091;-64
2022/04/02 12:27:30;;;;;;;1.92;1.00;;;11.00;88.60;;;;;;5008200;28;20056;-64
2022/04/02 12:29:58;;;;;;;5.47;1.02;;;11.40;91.70;;;;;;5014526;28;20042;-64
2022/04/02 12:32:37;;;;;;;3.67;1.25;;;10.90;87.70;;;;;;5008187;28;20401;-64
2022/04/02 12:35:10;;;;;;;16.02;1.63;;;11.10;87.50;;;;;;5008950;28;20046;-64
2022/04/02 12:37:46;;;;;;;3.50;1.33;;;11.70;89.10;;;;;;5019307;28;20038;-64
2022/04/02 12:40:22;;;;;;;4.05;1.20;;;12.10;90.10;;;;;;5028105;28;20041;-64
2022/04/02 12:42:54;;;;;;;2.67;1.23;;;12.30;86.30;;;;;;5011304;28;20141;-64
2022/04/02 12:45:24;;;;;;;5.40;1.13;;;12.60;84.90;;;;;;5007368;28;20469;-64
2022/04/02 12:48:05;;;;;;;3.55;1.02;;;13.00;84.10;;;;;;5008685;28;20453;-64
2022/04/02 12:50:33;;;;;;;7.45;1.05;;;12.50;84.90;;;;;;5027283;28;20060;-64
2022/04/02 12:52:59;;;;;;;4.28;1.00;;;11.80;84.60;;;;;;5027364;28;20099;-64
2022/04/02 12:55:31;;;;;;;1.48;0.85;;;12.40;84.10;;;;;;5027693;28;20045;-64
2022/04/02 12:57:59;;;;;;;3.22;1.50;;;12.60;83.80;;;;;;5012940;28;20041;-64
2022/04/02 13:00:41;;;;;;;6.10;1.30;;;12.70;83.90;;;;;;5013668;28;20053;-64
2022/04/02 13:03:07;;;;;;;4.20;0.63;;;13.00;82.70;;;;;;5012705;28;20049;-64
2022/04/02 13:05:44;;;;;;;2.67;0.82;;;13.30;83.40;;;;;;5026670;28;20115;-65
2022/04/02 13:08:25;;;;;;;3.50;0.77;;;12.90;79.60;;;;;;5027966;28;20539;-65
2022/04/02 13:10:56;;;;;;;3.78;0.85;;;13.00;83.40;;;;;;5026791;28;20057;-65
2022/04/02 13:13:35;;;;;;;7.45;3.10;;;12.70;82.90;;;;;;5028120;28;20060;-65
2022/04/02 13:16:02;;;;;;;10.43;3.17;;;12.00;83.90;;;;;;5012033;28;20045;-65